sensor_id;sensor_type;location;lat;lon;timestamp;P1;durP1;ratioP1;P2;durP2;ratioP2
65583;SDS011;62116;43.582;1.470;2023-04-03T00:01:41;4.50;;;1.95;;
65583;SDS011;62116;43.582;1.470;2023-04-03T00:04:06;4.25;;;1.63;;
65583;SDS011;62116;43.582;1.470;2023-04-03T00:06:32;4.28;;;1.50;;
65583;SDS011;62116;43.582;1.470;2023-04-03T00:08:58;4.40;;;1.70;;
65583;SDS011;62116;43.582;1.470;2023-04-03T00:11:27;3.05;;;1.65;;
65583;SDS011;62116;43.582;1.470;2023-04-03T00:13:52;6.03;;;1.95;;
65583;SDS011;62116;43.582;1.470;2023-04-03T00:16:18;6.05;;;1.67;;
65583;SDS011;62116;43.582;1.470;2023-04-03T00:18:43;5.75;;;1.80;;
65583;SDS011;62116;43.582;1.470;2023-04-03T00:21:09;5.78;;;1.65;;
65583;SDS011;62116;43.582;1.470;2023-04-03T00:23:36;4.72;;;1.70;;
65583;SDS011;62116;43.582;1.470;2023-04-03T00:26:02;3.28;;;1.70;;
65583;SDS011;62116;43.582;1.470;2023-04-03T00:28:27;5.05;;;1.75;;
65583;SDS011;62116;43.582;1.470;2023-04-03T00:30:53;4.85;;;1.90;;
65583;SDS011;62116;43.582;1.470;2023-04-03T00:33:18;4.88;;;1.63;;
65583;SDS011;62116;43.582;1.470;2023-04-03T00:35:46;4.72;;;1.92;;
65583;SDS011;62116;43.582;1.470;2023-04-03T00:38:13;6.07;;;2.00;;
65583;SDS011;62116;43.582;1.470;2023-04-03T00:40:41;4.90;;;1.83;;
65583;SDS011;62116;43.582;1.470;2023-04-03T00:43:13;4.80;;;1.90;;
65583;SDS011;62116;43.582;1.470;2023-04-03T00:45:48;5.22;;;1.83;;
65583;SDS011;62116;43.582;1.470;2023-04-03T00:48:19;5.13;;;1.80;;
65583;SDS011;62116;43.582;1.470;2023-04-03T00:50:47;5.18;;;1.67;;
65583;SDS011;62116;43.582;1.470;2023-04-03T00:53:15;6.60;;;2.00;;
65583;SDS011;62116;43.582;1.470;2023-04-03T00:55:47;3.55;;;1.80;;
65583;SDS011;62116;43.582;1.470;2023-04-03T00:58:13;5.78;;;1.88;;
65583;SDS011;62116;43.582;1.470;2023-04-03T01:00:42;5.07;;;1.95;;
65583;SDS011;62116;43.582;1.470;2023-04-03T01:03:11;8.02;;;1.85;;
65583;SDS011;62116;43.582;1.470;2023-04-03T01:05:36;4.38;;;1.85;;
65583;SDS011;62116;43.582;1.470;2023-04-03T01:08:02;5.13;;;1.80;;
65583;SDS011;62116;43.582;1.470;2023-04-03T01:10:28;4.70;;;1.70;;
65583;SDS011;62116;43.582;1.470;2023-04-03T01:12:54;4.88;;;1.80;;
65583;SDS011;62116;43.582;1.470;2023-04-03T01:15:24;7.72;;;1.92;;
65583;SDS011;62116;43.582;1.470;2023-04-03T01:23:32;5.88;;;1.80;;
65583;SDS011;62116;43.582;1.470;2023-04-03T01:25:48;4.95;;;1.60;;
65583;SDS011;62116;43.582;1.470;2023-04-03T01:28:19;6.07;;;1.77;;
65583;SDS011;62116;43.582;1.470;2023-04-03T01:30:56;5.03;;;1.67;;
65583;SDS011;62116;43.582;1.470;2023-04-03T01:33:23;3.28;;;1.67;;
65583;SDS011;62116;43.582;1.470;2023-04-03T01:35:48;4.82;;;1.70;;
65583;SDS011;62116;43.582;1.470;2023-04-03T01:38:14;4.85;;;1.80;;
65583;SDS011;62116;43.582;1.470;2023-04-03T01:40:40;3.25;;;1.90;;
65583;SDS011;62116;43.582;1.470;2023-04-03T01:43:05;4.70;;;1.77;;
65583;SDS011;62116;43.582;1.470;2023-04-03T01:45:30;6.20;;;2.05;;
65583;SDS011;62116;43.582;1.470;2023-04-03T01:47:56;5.43;;;1.77;;
65583;SDS011;62116;43.582;1.470;2023-04-03T01:50:21;5.82;;;2.10;;
65583;SDS011;62116;43.582;1.470;2023-04-03T01:52:46;5.45;;;1.75;;
65583;SDS011;62116;43.582;1.470;2023-04-03T01:55:12;5.40;;;2.20;;
65583;SDS011;62116;43.582;1.470;2023-04-03T01:57:37;5.60;;;2.20;;
65583;SDS011;62116;43.582;1.470;2023-04-03T02:00:03;4.55;;;2.13;;
65583;SDS011;62116;43.582;1.470;2023-04-03T02:02:28;4.53;;;2.05;;
65583;SDS011;62116;43.582;1.470;2023-04-03T02:04:54;4.53;;;2.05;;
65583;SDS011;62116;43.582;1.470;2023-04-03T02:07:19;4.43;;;1.98;;
65583;SDS011;62116;43.582;1.470;2023-04-03T02:09:45;5.50;;;2.10;;
65583;SDS011;62116;43.582;1.470;2023-04-03T02:12:10;10.23;;;2.30;;
65583;SDS011;62116;43.582;1.470;2023-04-03T02:14:36;2.92;;;1.88;;
65583;SDS011;62116;43.582;1.470;2023-04-03T02:17:01;3.67;;;1.88;;
65583;SDS011;62116;43.582;1.470;2023-04-03T02:19:30;4.65;;;2.00;;
65583;SDS011;62116;43.582;1.470;2023-04-03T02:21:56;4.38;;;2.13;;
65583;SDS011;62116;43.582;1.470;2023-04-03T02:24:21;5.80;;;2.00;;
65583;SDS011;62116;43.582;1.470;2023-04-03T02:26:46;7.15;;;2.50;;
65583;SDS011;62116;43.582;1.470;2023-04-03T02:29:12;3.58;;;1.98;;
65583;SDS011;62116;43.582;1.470;2023-04-03T02:31:37;5.22;;;2.17;;
65583;SDS011;62116;43.582;1.470;2023-04-03T02:34:02;3.65;;;1.95;;
65583;SDS011;62116;43.582;1.470;2023-04-03T02:36:28;5.82;;;2.13;;
65583;SDS011;62116;43.582;1.470;2023-04-03T02:38:53;5.32;;;2.05;;
65583;SDS011;62116;43.582;1.470;2023-04-03T02:41:19;3.38;;;2.00;;
65583;SDS011;62116;43.582;1.470;2023-04-03T02:43:45;6.18;;;2.30;;
65583;SDS011;62116;43.582;1.470;2023-04-03T02:46:11;4.45;;;2.10;;
65583;SDS011;62116;43.582;1.470;2023-04-03T02:48:36;5.78;;;2.10;;
65583;SDS011;62116;43.582;1.470;2023-04-03T02:51:02;3.47;;;2.10;;
65583;SDS011;62116;43.582;1.470;2023-04-03T02:53:27;4.07;;;2.10;;
65583;SDS011;62116;43.582;1.470;2023-04-03T02:55:53;4.97;;;2.10;;
65583;SDS011;62116;43.582;1.470;2023-04-03T02:58:18;3.67;;;1.95;;
65583;SDS011;62116;43.582;1.470;2023-04-03T03:00:43;4.68;;;2.13;;
65583;SDS011;62116;43.582;1.470;2023-04-03T03:03:09;4.82;;;2.30;;
65583;SDS011;62116;43.582;1.470;2023-04-03T03:05:34;2.83;;;1.90;;
65583;SDS011;62116;43.582;1.470;2023-04-03T03:08:00;5.15;;;2.08;;
65583;SDS011;62116;43.582;1.470;2023-04-03T03:10:26;5.20;;;2.38;;
65583;SDS011;62116;43.582;1.470;2023-04-03T03:12:51;5.47;;;2.03;;
65583;SDS011;62116;43.582;1.470;2023-04-03T03:15:17;3.33;;;2.00;;
65583;SDS011;62116;43.582;1.470;2023-04-03T03:17:44;4.68;;;2.00;;
65583;SDS011;62116;43.582;1.470;2023-04-03T03:20:09;5.10;;;2.17;;
65583;SDS011;62116;43.582;1.470;2023-04-03T03:22:36;6.82;;;2.10;;
65583;SDS011;62116;43.582;1.470;2023-04-03T03:25:02;5.78;;;2.30;;
65583;SDS011;62116;43.582;1.470;2023-04-03T03:27:28;3.67;;;2.08;;
65583;SDS011;62116;43.582;1.470;2023-04-03T03:29:53;5.57;;;2.25;;
65583;SDS011;62116;43.582;1.470;2023-04-03T03:32:19;3.25;;;2.20;;
65583;SDS011;62116;43.582;1.470;2023-04-03T03:34:44;3.95;;;2.10;;
65583;SDS011;62116;43.582;1.470;2023-04-03T03:37:10;4.90;;;2.15;;
65583;SDS011;62116;43.582;1.470;2023-04-03T03:39:35;3.70;;;2.10;;
65583;SDS011;62116;43.582;1.470;2023-04-03T03:42:00;4.80;;;2.30;;
65583;SDS011;62116;43.582;1.470;2023-04-03T03:44:26;4.47;;;2.20;;
65583;SDS011;62116;43.582;1.470;2023-04-03T03:46:53;5.70;;;2.30;;
65583;SDS011;62116;43.582;1.470;2023-04-03T03:49:19;4.82;;;2.40;;
65583;SDS011;62116;43.582;1.470;2023-04-03T03:51:45;6.30;;;2.40;;
65583;SDS011;62116;43.582;1.470;2023-04-03T03:54:10;5.82;;;2.30;;
65583;SDS011;62116;43.582;1.470;2023-04-03T03:56:36;6.35;;;2.67;;
65583;SDS011;62116;43.582;1.470;2023-04-03T03:59:01;4.18;;;2.38;;
65583;SDS011;62116;43.582;1.470;2023-04-03T04:01:26;4.22;;;2.38;;
65583;SDS011;62116;43.582;1.470;2023-04-03T04:03:52;5.28;;;2.65;;
65583;SDS011;62116;43.582;1.470;2023-04-03T04:06:19;5.15;;;2.40;;
65583;SDS011;62116;43.582;1.470;2023-04-03T04:08:44;5.05;;;2.38;;
65583;SDS011;62116;43.582;1.470;2023-04-03T04:11:10;3.92;;;1.98;;
65583;SDS011;62116;43.582;1.470;2023-04-03T04:13:35;3.83;;;2.28;;
65583;SDS011;62116;43.582;1.470;2023-04-03T04:16:00;3.95;;;2.22;;
65583;SDS011;62116;43.582;1.470;2023-04-03T04:18:26;4.25;;;2.38;;
65583;SDS011;62116;43.582;1.470;2023-04-03T04:20:52;4.32;;;2.22;;
65583;SDS011;62116;43.582;1.470;2023-04-03T04:23:17;4.13;;;2.33;;
65583;SDS011;62116;43.582;1.470;2023-04-03T04:25:44;4.97;;;2.35;;
65583;SDS011;62116;43.582;1.470;2023-04-03T04:28:10;4.75;;;2.50;;
65583;SDS011;62116;43.582;1.470;2023-04-03T04:30:36;4.18;;;2.38;;
65583;SDS011;62116;43.582;1.470;2023-04-03T04:33:02;5.75;;;2.50;;
65583;SDS011;62116;43.582;1.470;2023-04-03T04:35:27;5.40;;;2.35;;
65583;SDS011;62116;43.582;1.470;2023-04-03T04:37:53;3.38;;;2.35;;
65583;SDS011;62116;43.582;1.470;2023-04-03T04:40:18;4.28;;;2.47;;
65583;SDS011;62116;43.582;1.470;2023-04-03T04:42:44;4.38;;;2.40;;
65583;SDS011;62116;43.582;1.470;2023-04-03T04:45:09;3.47;;;2.50;;
65583;SDS011;62116;43.582;1.470;2023-04-03T04:47:35;6.13;;;2.45;;
65583;SDS011;62116;43.582;1.470;2023-04-03T04:50:00;5.60;;;2.38;;
65583;SDS011;62116;43.582;1.470;2023-04-03T04:52:26;3.80;;;2.47;;
65583;SDS011;62116;43.582;1.470;2023-04-03T04:54:51;7.20;;;2.45;;
65583;SDS011;62116;43.582;1.470;2023-04-03T04:57:17;4.07;;;2.22;;
65583;SDS011;62116;43.582;1.470;2023-04-03T04:59:42;5.63;;;2.40;;
65583;SDS011;62116;43.582;1.470;2023-04-03T05:02:08;5.15;;;2.38;;
65583;SDS011;62116;43.582;1.470;2023-04-03T05:04:33;4.85;;;2.20;;
65583;SDS011;62116;43.582;1.470;2023-04-03T05:06:58;3.78;;;2.38;;
65583;SDS011;62116;43.582;1.470;2023-04-03T05:09:24;4.70;;;2.50;;
65583;SDS011;62116;43.582;1.470;2023-04-03T05:11:50;4.78;;;2.53;;
65583;SDS011;62116;43.582;1.470;2023-04-03T05:14:15;5.40;;;2.65;;
65583;SDS011;62116;43.582;1.470;2023-04-03T05:16:41;5.22;;;2.58;;
65583;SDS011;62116;43.582;1.470;2023-04-03T05:19:06;5.50;;;2.45;;
65583;SDS011;62116;43.582;1.470;2023-04-03T05:21:32;5.93;;;2.70;;
65583;SDS011;62116;43.582;1.470;2023-04-03T05:24:00;6.32;;;2.70;;
65583;SDS011;62116;43.582;1.470;2023-04-03T05:26:28;4.38;;;2.53;;
65583;SDS011;62116;43.582;1.470;2023-04-03T05:28:54;7.05;;;2.75;;
65583;SDS011;62116;43.582;1.470;2023-04-03T05:31:20;4.43;;;2.60;;
65583;SDS011;62116;43.582;1.470;2023-04-03T05:33:45;4.63;;;2.60;;
65583;SDS011;62116;43.582;1.470;2023-04-03T05:36:11;4.80;;;2.38;;
65583;SDS011;62116;43.582;1.470;2023-04-03T05:38:37;4.57;;;2.60;;
65583;SDS011;62116;43.582;1.470;2023-04-03T05:41:03;6.03;;;2.65;;
65583;SDS011;62116;43.582;1.470;2023-04-03T05:43:29;3.30;;;2.58;;
65583;SDS011;62116;43.582;1.470;2023-04-03T05:45:54;3.80;;;2.70;;
65583;SDS011;62116;43.582;1.470;2023-04-03T05:48:20;4.78;;;2.97;;
65583;SDS011;62116;43.582;1.470;2023-04-03T05:50:46;4.03;;;2.38;;
65583;SDS011;62116;43.582;1.470;2023-04-03T05:53:20;5.45;;;2.50;;
65583;SDS011;62116;43.582;1.470;2023-04-03T05:55:48;6.35;;;2.70;;
65583;SDS011;62116;43.582;1.470;2023-04-03T05:58:14;7.75;;;2.78;;
65583;SDS011;62116;43.582;1.470;2023-04-03T06:00:39;4.35;;;2.97;;
65583;SDS011;62116;43.582;1.470;2023-04-03T06:03:05;3.65;;;2.45;;
65583;SDS011;62116;43.582;1.470;2023-04-03T06:05:31;6.18;;;2.60;;
65583;SDS011;62116;43.582;1.470;2023-04-03T06:07:57;4.38;;;2.75;;
65583;SDS011;62116;43.582;1.470;2023-04-03T06:10:22;6.40;;;2.58;;
65583;SDS011;62116;43.582;1.470;2023-04-03T06:12:48;5.00;;;2.67;;
65583;SDS011;62116;43.582;1.470;2023-04-03T06:15:13;6.47;;;2.80;;
65583;SDS011;62116;43.582;1.470;2023-04-03T06:17:40;5.85;;;2.53;;
65583;SDS011;62116;43.582;1.470;2023-04-03T06:20:06;3.92;;;2.45;;
65583;SDS011;62116;43.582;1.470;2023-04-03T06:22:32;5.82;;;2.40;;
65583;SDS011;62116;43.582;1.470;2023-04-03T06:24:58;4.97;;;2.50;;
65583;SDS011;62116;43.582;1.470;2023-04-03T06:27:23;4.50;;;2.75;;
65583;SDS011;62116;43.582;1.470;2023-04-03T06:29:48;7.80;;;2.55;;
65583;SDS011;62116;43.582;1.470;2023-04-03T06:32:14;4.47;;;2.60;;
65583;SDS011;62116;43.582;1.470;2023-04-03T06:34:40;4.10;;;2.45;;
65583;SDS011;62116;43.582;1.470;2023-04-03T06:37:06;4.30;;;2.38;;
65583;SDS011;62116;43.582;1.470;2023-04-03T06:39:38;4.00;;;2.40;;
65583;SDS011;62116;43.582;1.470;2023-04-03T06:42:03;5.68;;;2.70;;
65583;SDS011;62116;43.582;1.470;2023-04-03T06:44:29;6.40;;;2.63;;
65583;SDS011;62116;43.582;1.470;2023-04-03T06:46:54;5.38;;;2.75;;
65583;SDS011;62116;43.582;1.470;2023-04-03T06:49:20;6.20;;;2.90;;
65583;SDS011;62116;43.582;1.470;2023-04-03T06:51:45;6.05;;;2.55;;
65583;SDS011;62116;43.582;1.470;2023-04-03T06:54:10;4.97;;;2.30;;
65583;SDS011;62116;43.582;1.470;2023-04-03T06:56:36;5.05;;;2.50;;
65583;SDS011;62116;43.582;1.470;2023-04-03T06:59:02;4.57;;;2.55;;
65583;SDS011;62116;43.582;1.470;2023-04-03T07:01:28;4.72;;;2.50;;
65583;SDS011;62116;43.582;1.470;2023-04-03T07:03:55;4.93;;;2.65;;
65583;SDS011;62116;43.582;1.470;2023-04-03T07:06:21;5.32;;;3.28;;
65583;SDS011;62116;43.582;1.470;2023-04-03T07:08:46;4.70;;;2.50;;
65583;SDS011;62116;43.582;1.470;2023-04-03T07:11:16;7.65;;;3.03;;
65583;SDS011;62116;43.582;1.470;2023-04-03T07:13:41;3.92;;;2.42;;
65583;SDS011;62116;43.582;1.470;2023-04-03T07:16:07;5.28;;;2.70;;
65583;SDS011;62116;43.582;1.470;2023-04-03T07:18:34;5.47;;;2.50;;
65583;SDS011;62116;43.582;1.470;2023-04-03T07:20:59;5.28;;;2.67;;
65583;SDS011;62116;43.582;1.470;2023-04-03T07:23:25;8.38;;;2.60;;
65583;SDS011;62116;43.582;1.470;2023-04-03T07:25:51;4.53;;;2.60;;
65583;SDS011;62116;43.582;1.470;2023-04-03T07:28:18;5.38;;;2.72;;
65583;SDS011;62116;43.582;1.470;2023-04-03T07:30:46;6.50;;;2.70;;
65583;SDS011;62116;43.582;1.470;2023-04-03T07:33:13;5.45;;;2.75;;
65583;SDS011;62116;43.582;1.470;2023-04-03T07:35:40;5.85;;;2.70;;
65583;SDS011;62116;43.582;1.470;2023-04-03T07:38:06;7.22;;;2.60;;
65583;SDS011;62116;43.582;1.470;2023-04-03T07:40:32;4.97;;;2.42;;
65583;SDS011;62116;43.582;1.470;2023-04-03T07:42:57;5.07;;;2.47;;
65583;SDS011;62116;43.582;1.470;2023-04-03T07:45:23;5.60;;;2.70;;
65583;SDS011;62116;43.582;1.470;2023-04-03T07:47:49;8.05;;;2.53;;
65583;SDS011;62116;43.582;1.470;2023-04-03T07:50:15;5.03;;;2.63;;
65583;SDS011;62116;43.582;1.470;2023-04-03T07:52:41;7.18;;;2.50;;
65583;SDS011;62116;43.582;1.470;2023-04-03T07:55:06;4.75;;;2.63;;
65583;SDS011;62116;43.582;1.470;2023-04-03T07:57:32;7.53;;;2.83;;
65583;SDS011;62116;43.582;1.470;2023-04-03T07:59:58;5.07;;;2.60;;
65583;SDS011;62116;43.582;1.470;2023-04-03T08:02:23;4.75;;;2.50;;
65583;SDS011;62116;43.582;1.470;2023-04-03T08:04:48;5.25;;;2.70;;
65583;SDS011;62116;43.582;1.470;2023-04-03T08:07:14;5.72;;;2.63;;
65583;SDS011;62116;43.582;1.470;2023-04-03T08:09:40;6.00;;;2.30;;
65583;SDS011;62116;43.582;1.470;2023-04-03T08:12:05;6.03;;;2.65;;
65583;SDS011;62116;43.582;1.470;2023-04-03T08:14:33;3.85;;;2.67;;
65583;SDS011;62116;43.582;1.470;2023-04-03T08:17:01;4.88;;;2.50;;
65583;SDS011;62116;43.582;1.470;2023-04-03T08:19:29;4.65;;;2.30;;
65583;SDS011;62116;43.582;1.470;2023-04-03T08:21:54;5.15;;;2.80;;
65583;SDS011;62116;43.582;1.470;2023-04-03T08:24:20;7.45;;;2.50;;
65583;SDS011;62116;43.582;1.470;2023-04-03T08:26:46;4.45;;;2.30;;
65583;SDS011;62116;43.582;1.470;2023-04-03T08:29:11;3.90;;;2.30;;
65583;SDS011;62116;43.582;1.470;2023-04-03T08:31:36;4.20;;;2.30;;
65583;SDS011;62116;43.582;1.470;2023-04-03T08:34:02;5.90;;;2.50;;
65583;SDS011;62116;43.582;1.470;2023-04-03T08:36:29;8.73;;;2.65;;
65583;SDS011;62116;43.582;1.470;2023-04-03T08:38:56;5.70;;;2.20;;
65583;SDS011;62116;43.582;1.470;2023-04-03T08:41:27;8.50;;;2.70;;
65583;SDS011;62116;43.582;1.470;2023-04-03T08:44:03;7.60;;;2.70;;
65583;SDS011;62116;43.582;1.470;2023-04-03T08:49:24;5.60;;;2.30;;
65583;SDS011;62116;43.582;1.470;2023-04-03T08:51:54;7.55;;;2.50;;
65583;SDS011;62116;43.582;1.470;2023-04-03T08:54:27;6.55;;;2.67;;
65583;SDS011;62116;43.582;1.470;2023-04-03T08:56:59;5.75;;;2.40;;
65583;SDS011;62116;43.582;1.470;2023-04-03T08:59:28;6.85;;;2.42;;
65583;SDS011;62116;43.582;1.470;2023-04-03T09:01:57;6.38;;;2.30;;
65583;SDS011;62116;43.582;1.470;2023-04-03T09:04:27;5.90;;;2.20;;
65583;SDS011;62116;43.582;1.470;2023-04-03T09:06:55;6.63;;;2.55;;
65583;SDS011;62116;43.582;1.470;2023-04-03T09:09:40;3.90;;;2.13;;
65583;SDS011;62116;43.582;1.470;2023-04-03T09:12:16;3.83;;;2.00;;
65583;SDS011;62116;43.582;1.470;2023-04-03T09:20:19;4.10;;;2.00;;
65583;SDS011;62116;43.582;1.470;2023-04-03T09:22:46;5.55;;;1.58;;
65583;SDS011;62116;43.582;1.470;2023-04-03T09:25:15;3.03;;;1.52;;
65583;SDS011;62116;43.582;1.470;2023-04-03T09:27:45;4.45;;;1.92;;
65583;SDS011;62116;43.582;1.470;2023-04-03T09:30:21;3.92;;;1.60;;
65583;SDS011;62116;43.582;1.470;2023-04-03T09:32:49;5.03;;;1.80;;
65583;SDS011;62116;43.582;1.470;2023-04-03T09:37:46;4.97;;;1.80;;
65583;SDS011;62116;43.582;1.470;2023-04-03T09:40:27;6.97;;;1.80;;
65583;SDS011;62116;43.582;1.470;2023-04-03T09:45:46;5.18;;;1.70;;
65583;SDS011;62116;43.582;1.470;2023-04-03T09:51:00;3.85;;;1.90;;
65583;SDS011;62116;43.582;1.470;2023-04-03T09:53:36;3.00;;;1.50;;
65583;SDS011;62116;43.582;1.470;2023-04-03T09:56:26;5.50;;;1.75;;
65583;SDS011;62116;43.582;1.470;2023-04-03T10:01:33;4.90;;;1.67;;
65583;SDS011;62116;43.582;1.470;2023-04-03T10:04:04;4.78;;;1.70;;
65583;SDS011;62116;43.582;1.470;2023-04-03T10:06:33;4.75;;;1.80;;
65583;SDS011;62116;43.582;1.470;2023-04-03T10:09:06;3.10;;;1.45;;
65583;SDS011;62116;43.582;1.470;2023-04-03T10:14:38;3.13;;;1.50;;
65583;SDS011;62116;43.582;1.470;2023-04-03T10:22:24;4.32;;;1.55;;
65583;SDS011;62116;43.582;1.470;2023-04-03T10:28:01;4.68;;;1.70;;
65583;SDS011;62116;43.582;1.470;2023-04-03T10:31:20;3.00;;;1.42;;
65583;SDS011;62116;43.582;1.470;2023-04-03T10:36:23;2.65;;;1.40;;
65583;SDS011;62116;43.582;1.470;2023-04-03T10:41:51;5.95;;;1.60;;
65583;SDS011;62116;43.582;1.470;2023-04-03T10:47:17;2.78;;;1.58;;
65583;SDS011;62116;43.582;1.470;2023-04-03T10:52:36;3.97;;;1.50;;
65583;SDS011;62116;43.582;1.470;2023-04-03T10:55:21;2.97;;;1.38;;
65583;SDS011;62116;43.582;1.470;2023-04-03T10:57:50;4.22;;;1.50;;
65583;SDS011;62116;43.582;1.470;2023-04-03T11:00:16;2.63;;;1.15;;
65583;SDS011;62116;43.582;1.470;2023-04-03T11:03:00;2.08;;;1.17;;
65583;SDS011;62116;43.582;1.470;2023-04-03T11:10:55;2.80;;;1.13;;
65583;SDS011;62116;43.582;1.470;2023-04-03T11:13:35;3.13;;;0.90;;
65583;SDS011;62116;43.582;1.470;2023-04-03T11:16:07;2.55;;;1.00;;
65583;SDS011;62116;43.582;1.470;2023-04-03T11:18:40;2.22;;;1.13;;
65583;SDS011;62116;43.582;1.470;2023-04-03T11:23:54;4.40;;;1.13;;
65583;SDS011;62116;43.582;1.470;2023-04-03T11:26:24;4.82;;;1.10;;
65583;SDS011;62116;43.582;1.470;2023-04-03T11:29:01;2.55;;;1.10;;
65583;SDS011;62116;43.582;1.470;2023-04-03T11:31:56;2.90;;;1.25;;
65583;SDS011;62116;43.582;1.470;2023-04-03T11:34:35;4.20;;;1.48;;
65583;SDS011;62116;43.582;1.470;2023-04-03T11:37:17;2.97;;;1.20;;
65583;SDS011;62116;43.582;1.470;2023-04-03T11:39:57;2.50;;;1.10;;
65583;SDS011;62116;43.582;1.470;2023-04-03T11:58:14;3.22;;;0.98;;
65583;SDS011;62116;43.582;1.470;2023-04-03T12:00:54;3.00;;;1.10;;
65583;SDS011;62116;43.582;1.470;2023-04-03T12:03:33;4.65;;;1.23;;
65583;SDS011;62116;43.582;1.470;2023-04-03T12:13:33;2.22;;;1.25;;
65583;SDS011;62116;43.582;1.470;2023-04-03T12:15:59;3.30;;;1.30;;
65583;SDS011;62116;43.582;1.470;2023-04-03T12:26:47;2.53;;;0.90;;
65583;SDS011;62116;43.582;1.470;2023-04-03T12:41:14;10.25;;;2.13;;
65583;SDS011;62116;43.582;1.470;2023-04-03T12:46:39;4.15;;;1.27;;
65583;SDS011;62116;43.582;1.470;2023-04-03T12:49:29;4.10;;;1.20;;
65583;SDS011;62116;43.582;1.470;2023-04-03T12:52:01;2.45;;;1.08;;
65583;SDS011;62116;43.582;1.470;2023-04-03T12:54:37;3.88;;;1.50;;
65583;SDS011;62116;43.582;1.470;2023-04-03T12:57:16;3.33;;;1.30;;
65583;SDS011;62116;43.582;1.470;2023-04-03T12:59:42;5.35;;;1.35;;
65583;SDS011;62116;43.582;1.470;2023-04-03T13:02:15;5.35;;;1.30;;
65583;SDS011;62116;43.582;1.470;2023-04-03T13:04:46;3.90;;;1.33;;
65583;SDS011;62116;43.582;1.470;2023-04-03T13:07:21;5.97;;;1.40;;
65583;SDS011;62116;43.582;1.470;2023-04-03T13:09:57;5.72;;;1.70;;
65583;SDS011;62116;43.582;1.470;2023-04-03T13:12:24;3.97;;;1.13;;
65583;SDS011;62116;43.582;1.470;2023-04-03T13:14:58;3.90;;;1.30;;
65583;SDS011;62116;43.582;1.470;2023-04-03T13:17:25;3.58;;;1.00;;
65583;SDS011;62116;43.582;1.470;2023-04-03T13:19:52;2.85;;;1.20;;
65583;SDS011;62116;43.582;1.470;2023-04-03T13:22:26;3.42;;;1.20;;
65583;SDS011;62116;43.582;1.470;2023-04-03T13:24:52;4.43;;;1.20;;
65583;SDS011;62116;43.582;1.470;2023-04-03T13:27:20;3.30;;;1.00;;
65583;SDS011;62116;43.582;1.470;2023-04-03T13:29:49;3.75;;;1.50;;
65583;SDS011;62116;43.582;1.470;2023-04-03T13:32:21;3.00;;;1.10;;
65583;SDS011;62116;43.582;1.470;2023-04-03T13:34:48;3.67;;;1.20;;
65583;SDS011;62116;43.582;1.470;2023-04-03T13:37:22;2.72;;;1.10;;
65583;SDS011;62116;43.582;1.470;2023-04-03T13:42:37;3.80;;;1.30;;
65583;SDS011;62116;43.582;1.470;2023-04-03T13:45:11;5.57;;;1.30;;
65583;SDS011;62116;43.582;1.470;2023-04-03T13:47:48;6.00;;;1.50;;
65583;SDS011;62116;43.582;1.470;2023-04-03T13:52:47;4.97;;;1.10;;
65583;SDS011;62116;43.582;1.470;2023-04-03T13:55:24;2.80;;;1.00;;
65583;SDS011;62116;43.582;1.470;2023-04-03T13:58:20;5.45;;;1.20;;
65583;SDS011;62116;43.582;1.470;2023-04-03T14:00:39;4.57;;;1.27;;
65583;SDS011;62116;43.582;1.470;2023-04-03T14:03:26;3.53;;;1.10;;
65583;SDS011;62116;43.582;1.470;2023-04-03T14:05:55;3.05;;;1.10;;
65583;SDS011;62116;43.582;1.470;2023-04-03T14:08:20;2.65;;;1.00;;
65583;SDS011;62116;43.582;1.470;2023-04-03T14:10:46;3.88;;;1.23;;
65583;SDS011;62116;43.582;1.470;2023-04-03T14:13:14;4.15;;;1.35;;
65583;SDS011;62116;43.582;1.470;2023-04-03T14:15:41;2.80;;;1.02;;
65583;SDS011;62116;43.582;1.470;2023-04-03T14:18:10;4.32;;;1.20;;
65583;SDS011;62116;43.582;1.470;2023-04-03T14:20:37;5.05;;;1.25;;
65583;SDS011;62116;43.582;1.470;2023-04-03T14:23:03;3.97;;;1.30;;
65583;SDS011;62116;43.582;1.470;2023-04-03T14:25:28;4.18;;;1.27;;
65583;SDS011;62116;43.582;1.470;2023-04-03T14:27:54;4.75;;;1.38;;
65583;SDS011;62116;43.582;1.470;2023-04-03T14:30:26;4.18;;;1.20;;
65583;SDS011;62116;43.582;1.470;2023-04-03T14:32:54;3.65;;;1.20;;
65583;SDS011;62116;43.582;1.470;2023-04-03T14:35:20;4.80;;;1.20;;
65583;SDS011;62116;43.582;1.470;2023-04-03T14:37:46;3.10;;;1.20;;
65583;SDS011;62116;43.582;1.470;2023-04-03T14:40:14;4.40;;;1.27;;
65583;SDS011;62116;43.582;1.470;2023-04-03T14:42:43;4.45;;;1.15;;
65583;SDS011;62116;43.582;1.470;2023-04-03T14:45:10;5.43;;;1.40;;
65583;SDS011;62116;43.582;1.470;2023-04-03T14:47:39;2.60;;;1.15;;
65583;SDS011;62116;43.582;1.470;2023-04-03T14:50:17;7.32;;;1.48;;
65583;SDS011;62116;43.582;1.470;2023-04-03T14:52:48;5.88;;;1.73;;
65583;SDS011;62116;43.582;1.470;2023-04-03T14:55:17;4.97;;;1.65;;
65583;SDS011;62116;43.582;1.470;2023-04-03T14:57:44;8.00;;;1.40;;
65583;SDS011;62116;43.582;1.470;2023-04-03T15:00:12;4.35;;;1.40;;
65583;SDS011;62116;43.582;1.470;2023-04-03T15:02:39;3.95;;;1.40;;
65583;SDS011;62116;43.582;1.470;2023-04-03T15:05:06;6.35;;;1.65;;
65583;SDS011;62116;43.582;1.470;2023-04-03T15:07:34;3.38;;;1.40;;
65583;SDS011;62116;43.582;1.470;2023-04-03T15:12:39;4.70;;;1.05;;
65583;SDS011;62116;43.582;1.470;2023-04-03T15:15:05;3.60;;;1.17;;
65583;SDS011;62116;43.582;1.470;2023-04-03T15:17:31;5.60;;;1.58;;
65583;SDS011;62116;43.582;1.470;2023-04-03T15:19:57;5.07;;;1.42;;
65583;SDS011;62116;43.582;1.470;2023-04-03T15:22:23;3.33;;;1.20;;
65583;SDS011;62116;43.582;1.470;2023-04-03T15:24:49;3.72;;;1.50;;
65583;SDS011;62116;43.582;1.470;2023-04-03T15:27:15;3.03;;;1.10;;
65583;SDS011;62116;43.582;1.470;2023-04-03T15:29:41;4.18;;;1.15;;
65583;SDS011;62116;43.582;1.470;2023-04-03T15:32:07;6.32;;;1.55;;
65583;SDS011;62116;43.582;1.470;2023-04-03T15:34:34;3.90;;;1.45;;
65583;SDS011;62116;43.582;1.470;2023-04-03T15:37:00;4.22;;;1.30;;
65583;SDS011;62116;43.582;1.470;2023-04-03T15:39:25;4.72;;;1.40;;
65583;SDS011;62116;43.582;1.470;2023-04-03T15:41:51;2.42;;;1.20;;
65583;SDS011;62116;43.582;1.470;2023-04-03T15:44:17;3.78;;;1.08;;
65583;SDS011;62116;43.582;1.470;2023-04-03T15:46:43;2.63;;;1.25;;
65583;SDS011;62116;43.582;1.470;2023-04-03T15:49:10;3.90;;;1.20;;
65583;SDS011;62116;43.582;1.470;2023-04-03T15:51:36;4.07;;;1.17;;
65583;SDS011;62116;43.582;1.470;2023-04-03T15:54:01;4.25;;;1.23;;
65583;SDS011;62116;43.582;1.470;2023-04-03T15:56:26;5.13;;;1.25;;
65583;SDS011;62116;43.582;1.470;2023-04-03T15:58:52;6.35;;;1.45;;
65583;SDS011;62116;43.582;1.470;2023-04-03T16:01:17;3.50;;;1.30;;
65583;SDS011;62116;43.582;1.470;2023-04-03T16:03:43;5.65;;;1.20;;
65583;SDS011;62116;43.582;1.470;2023-04-03T16:06:11;3.25;;;1.20;;
65583;SDS011;62116;43.582;1.470;2023-04-03T16:08:37;3.15;;;1.00;;
65583;SDS011;62116;43.582;1.470;2023-04-03T16:11:03;2.80;;;1.10;;
65583;SDS011;62116;43.582;1.470;2023-04-03T16:13:28;4.45;;;1.50;;
65583;SDS011;62116;43.582;1.470;2023-04-03T16:15:54;4.82;;;1.42;;
65583;SDS011;62116;43.582;1.470;2023-04-03T16:18:20;3.55;;;1.10;;
65583;SDS011;62116;43.582;1.470;2023-04-03T16:20:45;4.15;;;1.20;;
65583;SDS011;62116;43.582;1.470;2023-04-03T16:23:11;3.83;;;1.20;;
65583;SDS011;62116;43.582;1.470;2023-04-03T16:25:37;3.28;;;1.20;;
65583;SDS011;62116;43.582;1.470;2023-04-03T16:28:02;4.40;;;1.20;;
65583;SDS011;62116;43.582;1.470;2023-04-03T16:30:28;3.10;;;1.25;;
65583;SDS011;62116;43.582;1.470;2023-04-03T16:32:53;2.30;;;1.00;;
65583;SDS011;62116;43.582;1.470;2023-04-03T16:35:20;4.68;;;1.20;;
65583;SDS011;62116;43.582;1.470;2023-04-03T16:37:46;4.85;;;1.27;;
65583;SDS011;62116;43.582;1.470;2023-04-03T16:40:11;5.03;;;1.48;;
65583;SDS011;62116;43.582;1.470;2023-04-03T16:42:37;2.30;;;0.90;;